Time;durP1;ratioP1;P1;durP2;ratioP2;P2;SDS_P1;SDS_P2;PMS_P1;PMS_P2;Temp;Humidity;BMP_temperature;BMP_pressure;BME280_temperature;BME280_humidity;BME280_pressure;Samples;Min_cycle;Max_cycle;Signal;HPM_P1;HPM_P2
2023/08/13 00:00:45;;;;;;;6.50;5.50;;;;;;;18.55;76.05;96986.31;108644;1274;74295;-77
2023/08/13 00:03:44;;;;;;;6.10;5.20;;;;;;;18.52;76.00;96993.17;108692;1275;22549;-77
2023/08/13 00:06:18;;;;;;;7.70;5.00;;;;;;;18.47;75.94;96988.69;108793;1272;24295;-77
2023/08/13 00:09:01;;;;;;;5.90;5.00;;;;;;;18.38;76.00;96988.88;108715;1275;23677;-77
2023/08/13 00:11:33;;;;;;;7.80;5.30;;;;;;;18.31;76.25;96985.89;108666;1275;22529;-76
2023/08/13 00:14:06;;;;;;;6.10;5.20;;;;;;;18.23;76.47;96980.16;108699;1269;22690;-77
2023/08/13 00:16:37;;;;;;;7.50;5.00;;;;;;;18.19;76.84;96983.90;108655;1275;25356;-76
2023/08/13 00:19:13;;;;;;;6.70;4.90;;;;;;;18.20;77.32;96983.43;108677;1275;23184;-76
2023/08/13 00:21:48;;;;;;;5.80;5.20;;;;;;;18.22;77.41;96984.65;108721;1268;22540;-76
2023/08/13 00:24:20;;;;;;;6.30;5.00;;;;;;;18.23;77.37;96980.32;108639;1272;22534;-76
2023/08/13 00:26:55;;;;;;;6.80;5.60;;;;;;;18.19;77.52;96984.22;108678;1272;22530;-77
2023/08/13 00:29:30;;;;;;;6.60;5.00;;;;;;;18.16;77.43;96989.64;108687;1275;22526;-76
2023/08/13 00:32:01;;;;;;;7.00;5.10;;;;;;;18.15;77.66;96989.54;108699;1275;22520;-76
2023/08/13 00:34:34;;;;;;;7.60;5.10;;;;;;;18.17;77.73;96988.73;108777;1272;24245;-76
2023/08/13 00:37:05;;;;;;;6.10;4.70;;;;;;;18.20;77.66;96989.77;108539;1275;22522;-77
2023/08/13 00:39:36;;;;;;;7.10;5.10;;;;;;;18.20;77.54;96988.70;108676;1275;27100;-77
2023/08/13 00:42:07;;;;;;;5.20;4.60;;;;;;;18.19;77.52;96986.59;108594;1268;22505;-77
2023/08/13 00:44:38;;;;;;;6.50;4.80;;;;;;;18.17;77.59;96987.41;108569;1275;22941;-76
2023/08/13 00:47:12;;;;;;;6.00;4.80;;;;;;;18.15;77.73;96987.61;108613;1272;24240;-76
2023/08/13 00:49:43;;;;;;;6.00;4.70;;;;;;;18.14;77.75;96989.19;108509;1275;23332;-76
2023/08/13 00:52:14;;;;;;;5.60;4.90;;;;;;;18.21;78.18;96986.36;108545;1275;24312;-76
2023/08/13 00:54:46;;;;;;;5.70;4.70;;;;;;;18.31;78.13;96993.41;108509;1275;22525;-77
2023/08/13 00:57:17;;;;;;;6.50;4.60;;;;;;;18.40;77.90;96997.77;108530;1275;22593;-77
2023/08/13 00:59:49;;;;;;;5.20;4.30;;;;;;;18.49;77.65;97001.91;108590;1275;22541;-77
2023/08/13 01:02:21;;;;;;;7.40;3.90;;;;;;;18.54;77.26;97003.85;108590;1252;24225;-76
2023/08/13 01:04:57;;;;;;;5.80;4.40;;;;;;;18.65;77.03;97007.35;108533;1275;22515;-77
2023/08/13 01:07:37;;;;;;;3.90;3.40;;;;;;;18.76;76.74;97009.52;108581;1275;22515;-76
2023/08/13 01:10:19;;;;;;;6.60;4.50;;;;;;;18.75;76.25;97007.94;108498;1275;22518;-77
2023/08/13 01:12:57;;;;;;;4.60;3.90;;;;;;;18.68;75.98;97007.48;108564;1275;22537;-76
2023/08/13 01:15:31;;;;;;;6.80;5.50;;;;;;;18.61;76.08;97006.09;108610;1275;25188;-76
2023/08/13 01:18:03;;;;;;;5.30;4.20;;;;;;;18.63;75.86;97006.63;108570;1275;22537;-77
2023/08/13 01:20:38;;;;;;;6.40;4.50;;;;;;;18.61;75.69;97007.23;108562;1268;25329;-77
2023/08/13 01:23:09;;;;;;;5.10;4.50;;;;;;;18.54;75.52;97008.30;108604;1275;22551;-77
2023/08/13 01:25:41;;;;;;;8.10;5.10;;;;;;;18.48;75.73;97012.22;108524;1275;22544;-77
2023/08/13 01:28:23;;;;;;;5.90;4.10;;;;;;;18.44;75.81;97011.87;108616;1274;22636;-77
2023/08/13 01:31:03;;;;;;;6.00;4.80;;;;;;;18.36;75.78;97012.56;108554;1272;22513;-77
2023/08/13 01:33:38;;;;;;;6.70;4.40;;;;;;;18.30;75.84;97010.85;108540;1269;22619;-77
2023/08/13 01:36:10;;;;;;;5.30;4.30;;;;;;;18.25;76.01;97014.52;108591;1275;25414;-77
2023/08/13 01:38:42;;;;;;;4.70;4.10;;;;;;;18.21;76.17;97015.81;108577;1267;24239;-77
2023/08/13 01:41:13;;;;;;;5.80;4.60;;;;;;;18.18;76.30;97018.13;108552;1272;26801;-77
2023/08/13 01:43:44;;;;;;;4.40;4.00;;;;;;;18.14;76.38;97016.31;108605;1275;22530;-77
2023/08/13 01:46:18;;;;;;;6.40;4.90;;;;;;;18.13;76.45;97020.95;108566;1267;22519;-77
2023/08/13 01:48:49;;;;;;;7.20;4.00;;;;;;;18.14;76.42;97016.79;108596;1275;22547;-76
2023/08/13 01:51:20;;;;;;;5.60;4.40;;;;;;;18.16;76.48;97017.52;108628;1269;25415;-76
2023/08/13 01:53:57;;;;;;;5.00;4.10;;;;;;;18.21;76.37;97024.88;108637;1275;24289;-77
2023/08/13 01:56:28;;;;;;;4.40;4.00;;;;;;;18.26;76.30;97021.92;108644;1272;22529;-77
2023/08/13 01:58:59;;;;;;;5.50;4.10;;;;;;;18.29;76.17;97022.05;108579;1275;22596;-77
2023/08/13 02:01:30;;;;;;;4.10;3.50;;;;;;;18.33;76.03;97024.08;108627;1273;27165;-76
2023/08/13 02:04:01;;;;;;;4.40;4.00;;;;;;;18.36;75.93;97030.13;108641;1273;22528;-76
2023/08/13 02:06:35;;;;;;;6.20;4.20;;;;;;;18.38;75.69;97032.11;108656;1275;24212;-77
2023/08/13 02:09:06;;;;;;;5.70;3.80;;;;;;;18.35;75.41;97029.00;108599;1274;22525;-77
2023/08/13 02:11:37;;;;;;;5.10;4.20;;;;;;;18.32;75.41;97030.66;108610;1275;22513;-77
2023/08/13 02:14:08;;;;;;;4.80;4.20;;;;;;;18.30;75.40;97032.61;108601;1275;22547;-77
2023/08/13 02:16:39;;;;;;;5.60;4.40;;;;;;;18.26;75.31;97037.05;108599;1267;22601;-77
2023/08/13 02:19:10;;;;;;;5.10;4.00;;;;;;;18.22;75.23;97033.68;108594;1275;22620;-77
2023/08/13 02:21:42;;;;;;;5.10;3.90;;;;;;;18.18;75.32;97027.41;108600;1275;30086;-77
2023/08/13 02:24:13;;;;;;;5.80;4.10;;;;;;;18.16;75.31;97030.15;108633;1274;22519;-77
2023/08/13 02:26:44;;;;;;;5.70;4.20;;;;;;;18.09;75.29;97031.23;108600;1274;26451;-77
2023/08/13 02:29:15;;;;;;;5.10;4.00;;;;;;;18.04;75.39;97030.00;108589;1274;22523;-76
2023/08/13 02:31:49;;;;;;;5.60;4.60;;;;;;;18.01;75.56;97031.84;108557;1267;23243;-77
2023/08/13 02:34:20;;;;;;;4.30;3.90;;;;;;;17.97;75.74;97029.77;108633;1275;22606;-76
2023/08/13 02:36:53;;;;;;;6.30;4.00;;;;;;;17.95;75.85;97029.98;108615;1274;22502;-77
2023/08/13 02:39:27;;;;;;;4.60;4.10;;;;;;;17.97;75.97;97024.49;108616;1274;22546;-77
2023/08/13 02:42:00;;;;;;;5.40;3.90;;;;;;;18.03;76.02;97029.74;108561;1275;22526;-77
2023/08/13 02:44:31;;;;;;;4.80;4.00;;;;;;;18.05;75.91;97032.20;108634;1261;22527;-76
2023/08/13 02:47:04;;;;;;;5.20;4.30;;;;;;;18.06;75.87;97030.02;108712;1275;22536;-77
2023/08/13 02:49:35;;;;;;;4.30;3.90;;;;;;;18.09;75.90;97030.23;108637;1273;22533;-77
2023/08/13 02:52:09;;;;;;;5.00;3.70;;;;;;;18.18;75.97;97029.77;108801;1274;22543;-76
2023/08/13 02:54:42;;;;;;;4.10;3.70;;;;;;;18.28;75.75;97029.44;108733;1274;22594;-77
2023/08/13 02:57:16;;;;;;;4.40;4.00;;;;;;;18.35;75.49;97028.15;108695;1273;22547;-77
2023/08/13 02:59:47;;;;;;;4.50;3.60;;;;;;;18.42;75.29;97028.03;108718;1274;22533;-77
2023/08/13 03:02:18;;;;;;;5.10;3.30;;;;;;;18.41;75.07;97024.34;108689;1275;22619;-77
2023/08/13 03:04:49;;;;;;;5.70;4.30;;;;;;;18.38;74.95;97024.92;108684;1269;22522;-77
2023/08/13 03:07:23;;;;;;;4.30;3.90;;;;;;;18.34;74.97;97023.67;108676;1275;23462;-77
2023/08/13 03:09:57;;;;;;;4.80;3.60;;;;;;;18.32;74.99;97021.11;108606;1273;23027;-77
2023/08/13 03:12:31;;;;;;;5.70;3.90;;;;;;;18.30;75.07;97012.99;108684;1275;22531;-76
2023/08/13 03:15:05;;;;;;;4.10;3.50;;;;;;;18.29;74.99;97016.67;108708;1275;22537;-77
2023/08/13 03:17:38;;;;;;;5.90;4.10;;;;;;;18.26;75.06;97016.09;108668;1275;25241;-77
2023/08/13 03:20:12;;;;;;;4.30;3.40;;;;;;;18.25;75.14;97015.90;108626;1275;22514;-77
2023/08/13 03:22:43;;;;;;;4.60;3.80;;;;;;;18.24;75.07;97016.17;108698;1270;22562;-77
2023/08/13 03:25:16;;;;;;;3.70;3.40;;;;;;;18.22;75.13;97015.17;108671;1272;22546;-77
2023/08/13 03:27:50;;;;;;;4.40;3.70;;;;;;;18.23;75.12;97016.73;108736;1254;26425;-77
2023/08/13 03:30:28;;;;;;;4.90;3.80;;;;;;;18.25;75.16;97021.27;106642;1275;2567361;-77
2023/08/13 03:33:00;;;;;;;6.50;3.70;;;;;;;18.25;75.12;97022.27;108799;1273;22526;-77
2023/08/13 03:35:38;;;;;;;5.40;3.90;;;;;;;18.26;74.96;97021.86;108640;1275;22535;-77
2023/08/13 03:38:10;;;;;;;3.80;3.20;;;;;;;18.28;74.99;97026.30;108695;1271;22653;-77
2023/08/13 03:40:43;;;;;;;5.10;3.60;;;;;;;18.30;75.00;97027.94;108628;1275;22531;-77
2023/08/13 03:43:14;;;;;;;5.30;3.70;;;;;;;18.32;74.96;97024.27;108638;1275;22502;-77
2023/08/13 03:45:46;;;;;;;4.10;3.30;;;;;;;18.35;74.86;97023.70;108662;1269;22521;-77
2023/08/13 03:48:23;;;;;;;4.20;3.80;;;;;;;18.37;74.83;97024.95;108700;1272;25342;-77
2023/08/13 03:50:55;;;;;;;4.50;3.50;;;;;;;18.38;74.80;97025.77;108647;1275;22557;-77
2023/08/13 03:53:26;;;;;;;7.10;3.60;;;;;;;18.41;74.64;97026.86;108760;1275;22525;-76
2023/08/13 03:55:59;;;;;;;4.20;3.30;;;;;;;18.44;74.67;97027.27;108667;1270;22574;-77
2023/08/13 03:58:31;;;;;;;6.60;4.30;;;;;;;18.45;74.59;97025.36;108781;1275;24746;-77
2023/08/13 04:01:10;;;;;;;4.80;3.90;;;;;;;18.48;74.59;97025.61;108613;1275;22661;-78
2023/08/13 04:03:41;;;;;;;3.90;3.40;;;;;;;18.49;74.61;97020.23;108683;1275;22575;-77
2023/08/13 04:06:12;;;;;;;5.70;3.70;;;;;;;18.52;74.31;97022.81;108715;1275;22558;-77
2023/08/13 04:08:47;;;;;;;4.40;3.70;;;;;;;18.55;74.23;97030.45;108697;1275;22512;-77
2023/08/13 04:11:18;;;;;;;4.60;3.60;;;;;;;18.59;74.22;97037.40;108630;1275;22530;-76
2023/08/13 04:13:52;;;;;;;3.80;3.40;;;;;;;18.61;74.10;97037.87;108742;1275;22520;-77
2023/08/13 04:16:26;;;;;;;5.70;3.90;;;;;;;18.62;73.95;97030.55;108689;1268;22741;-77
2023/08/13 04:19:01;;;;;;;4.30;3.40;;;;;;;18.64;73.94;97031.88;108657;1269;22535;-77
2023/08/13 04:21:33;;;;;;;4.90;3.70;;;;;;;18.68;73.94;97031.86;108655;1275;22539;-77
2023/08/13 04:24:06;;;;;;;4.60;3.40;;;;;;;18.74;73.90;97032.84;108689;1273;22524;-77
2023/08/13 04:26:40;;;;;;;3.40;3.10;;;;;;;18.78;73.83;97032.83;108669;1275;22769;-76
2023/08/13 04:29:12;;;;;;;4.70;3.80;;;;;;;18.82;73.67;97035.44;108694;1275;22540;-76
2023/08/13 04:31:44;;;;;;;3.40;3.10;;;;;;;18.86;73.68;97037.33;108683;1275;22550;-77
2023/08/13 04:34:19;;;;;;;5.70;3.70;;;;;;;18.95;73.54;97040.36;108681;1275;25958;-77
2023/08/13 04:36:52;;;;;;;3.80;3.40;;;;;;;19.07;73.52;97039.40;108661;1270;22525;-77
2023/08/13 04:39:26;;;;;;;3.60;3.30;;;;;;;19.20;73.16;97035.09;108512;1270;22525;-77
2023/08/13 04:42:01;;;;;;;3.70;2.80;;;;;;;19.38;73.18;97037.73;108561;1276;23207;-77
2023/08/13 04:44:33;;;;;;;4.20;3.00;;;;;;;19.99;73.14;97035.32;108586;1268;22550;-77
2023/08/13 04:47:07;;;;;;;5.80;3.20;;;;;;;20.83;72.36;97035.75;108579;1276;22535;-78
2023/08/13 04:49:38;;;;;;;3.70;3.30;;;;;;;21.66;70.24;97026.58;108528;1269;23430;-78
2023/08/13 04:52:10;;;;;;;3.30;3.00;;;;;;;22.19;69.14;97030.15;108533;1276;22615;-78
2023/08/13 04:54:41;;;;;;;3.80;3.20;;;;;;;22.65;67.42;97031.94;108568;1276;25290;-77
2023/08/13 04:57:13;;;;;;;3.90;3.30;;;;;;;22.92;65.44;97026.33;108478;1276;22524;-78
2023/08/13 04:59:55;;;;;;;5.70;3.10;;;;;;;23.13;64.84;97036.45;108505;1276;50043;-78
2023/08/13 05:02:28;;;;;;;3.20;2.80;;;;;;;23.44;63.97;97033.88;108561;1274;24215;-77
2023/08/13 05:05:01;;;;;;;5.90;3.30;;;;;;;23.61;62.68;97033.60;108572;1276;22614;-77
2023/08/13 05:07:35;;;;;;;6.40;2.90;;;;;;;23.68;61.61;97039.64;108604;1276;25889;-77
2023/08/13 05:10:13;;;;;;;3.40;3.10;;;;;;;23.32;59.02;97041.48;108536;1259;22660;-77
2023/08/13 05:12:47;;;;;;;3.70;3.00;;;;;;;23.07;60.07;97045.19;108575;1276;24392;-77
2023/08/13 05:15:19;;;;;;;3.50;2.90;;;;;;;23.22;59.43;97036.82;108574;1274;26154;-77
2023/08/13 05:17:57;;;;;;;4.80;2.90;;;;;;;23.03;59.25;97040.77;108550;1273;22763;-77
2023/08/13 05:20:33;;;;;;;6.00;3.30;;;;;;;23.25;60.56;97038.77;108652;1269;22547;-76
2023/08/13 05:23:11;;;;;;;4.80;3.20;;;;;;;23.48;59.23;97038.14;108592;1276;23850;-77
2023/08/13 05:25:46;;;;;;;3.00;2.60;;;;;;;23.55;59.06;97040.39;108537;1270;22636;-77
2023/08/13 05:28:21;;;;;;;4.80;2.50;;;;;;;23.44;58.56;97041.98;108582;1276;22544;-77
2023/08/13 05:30:58;;;;;;;3.50;2.80;;;;;;;23.25;58.04;97039.16;108500;1273;24683;-78
2023/08/13 05:33:31;;;;;;;4.10;2.80;;;;;;;23.12;58.28;97035.64;108570;1276;22807;-77
2023/08/13 05:36:07;;;;;;;3.40;3.00;;;;;;;23.14;58.62;97036.54;108573;1271;22532;-77
2023/08/13 05:38:39;;;;;;;4.70;3.10;;;;;;;23.26;58.74;97039.31;108792;1270;23288;-77
2023/08/13 05:41:12;;;;;;;5.30;2.80;;;;;;;23.21;58.32;97037.98;108651;1275;25401;-78
2023/08/13 05:43:43;;;;;;;4.80;2.70;;;;;;;23.25;58.63;97035.75;108600;1275;24183;-77
2023/08/13 05:46:17;;;;;;;3.30;2.70;;;;;;;23.23;58.46;97040.02;108611;1272;24355;-77
2023/08/13 05:48:54;;;;;;;3.00;2.60;;;;;;;23.31;58.50;97049.33;108514;1269;22506;-78
2023/08/13 05:51:26;;;;;;;4.60;2.70;;;;;;;23.68;59.04;97043.33;108577;1270;22543;-78
2023/08/13 05:53:58;;;;;;;2.90;2.70;;;;;;;23.91;58.87;97046.55;108543;1275;22521;-78
2023/08/13 05:56:31;;;;;;;3.60;2.70;;;;;;;24.21;58.45;97045.09;108560;1268;22629;-80
2023/08/13 05:59:03;;;;;;;3.70;2.30;;;;;;;24.33;57.65;97045.84;108606;1275;24021;-79
2023/08/13 06:01:39;;;;;;;3.90;2.80;;;;;;;24.61;57.92;97041.58;108570;1275;22569;-79
2023/08/13 06:04:14;;;;;;;2.80;2.40;;;;;;;24.70;57.34;97041.45;108605;1272;22514;-79
2023/08/13 06:06:49;;;;;;;3.70;2.90;;;;;;;24.60;56.90;97041.73;108690;1270;23447;-79
2023/08/13 06:09:24;;;;;;;4.50;3.10;;;;;;;24.57;56.36;97037.17;108588;1269;22513;-79
2023/08/13 06:11:59;;;;;;;3.50;2.50;;;;;;;24.20;55.83;97044.68;108515;1268;22542;-78
2023/08/13 06:14:42;;;;;;;3.00;2.70;;;;;;;23.87;56.16;97040.97;108560;1275;25431;-79
2023/08/13 06:17:16;;;;;;;3.80;2.60;;;;;;;23.68;56.53;97041.27;108507;1270;22542;-79
2023/08/13 06:19:49;;;;;;;3.60;2.60;;;;;;;23.54;56.80;97044.95;108529;1268;22635;-79
2023/08/13 06:22:22;;;;;;;3.50;2.90;;;;;;;23.57;57.67;97053.38;108596;1272;24269;-78
2023/08/13 06:24:54;;;;;;;4.10;3.00;;;;;;;23.68;57.76;97050.77;108714;1272;22542;-78
2023/08/13 06:27:28;;;;;;;4.10;3.00;;;;;;;23.81;57.85;97054.78;108623;1275;22531;-79
2023/08/13 06:30:07;;;;;;;4.10;3.00;;;;;;;23.99;57.95;97058.56;108560;1268;22604;-79
2023/08/13 06:32:41;;;;;;;3.20;2.90;;;;;;;24.11;57.63;97054.73;108522;1269;25240;-79
2023/08/13 06:35:20;;;;;;;5.20;2.80;;;;;;;24.19;57.78;97057.06;108662;1275;25478;-75
2023/08/13 06:37:52;;;;;;;3.90;2.80;;;;;;;24.41;58.03;97060.32;108643;1275;25496;-75
2023/08/13 06:40:33;;;;;;;3.10;2.90;;;;;;;24.78;58.17;97054.68;108584;1269;22532;-75
2023/08/13 06:43:05;;;;;;;2.90;2.60;;;;;;;24.87;57.23;97053.76;108607;1271;24216;-75
2023/08/13 06:45:37;;;;;;;3.30;2.70;;;;;;;24.90;57.62;97060.79;108565;1268;24243;-77
2023/08/13 06:48:09;;;;;;;4.60;3.20;;;;;;;25.28;57.68;97057.29;108585;1269;24285;-76
2023/08/13 06:50:40;;;;;;;3.20;2.80;;;;;;;25.57;57.47;97056.35;108607;1275;22528;-77
2023/08/13 06:53:35;;;;;;;3.70;2.90;;;;;;;25.93;57.32;97062.25;108420;1275;22543;-77
2023/08/13 06:56:20;;;;;;;3.50;2.80;;;;;;;25.89;55.77;97059.56;108211;1274;22530;-78
2023/08/13 06:58:56;;;;;;;3.60;2.50;;;;;;;25.88;55.78;97067.93;108630;1275;22518;-77
2023/08/13 07:01:27;;;;;;;3.40;2.70;;;;;;;26.00;55.46;97061.18;108652;1269;24548;-78
2023/08/13 07:03:58;;;;;;;3.50;2.50;;;;;;;25.98;55.25;97067.52;108515;1275;24999;-77
2023/08/13 07:06:31;;;;;;;3.20;2.60;;;;;;;26.02;55.15;97064.45;108571;1272;22553;-77
2023/08/13 07:09:03;;;;;;;2.90;2.70;;;;;;;26.12;55.19;97062.89;108576;1272;24398;-77
2023/08/13 07:11:36;;;;;;;3.90;2.80;;;;;;;25.87;53.69;97062.48;108718;1275;22542;-77
2023/08/13 07:14:17;;;;;;;5.40;3.00;;;;;;;25.52;53.82;97069.54;108712;1269;22680;-77
2023/08/13 07:16:51;;;;;;;3.50;2.60;;;;;;;25.36;54.28;97071.06;108741;1275;22536;-78
2023/08/13 07:19:25;;;;;;;3.30;2.80;;;;;;;25.45;55.27;97072.14;108655;1275;22537;-77
2023/08/13 07:22:00;;;;;;;3.60;2.40;;;;;;;25.75;55.45;97073.16;108635;1272;24132;-78
2023/08/13 07:24:32;;;;;;;3.20;2.50;;;;;;;26.13;55.07;97072.05;108693;1275;22537;-78
2023/08/13 07:27:04;;;;;;;3.80;2.70;;;;;;;26.03;54.05;97070.38;108659;1268;22567;-79
2023/08/13 07:29:35;;;;;;;3.20;2.90;;;;;;;26.06;54.33;97070.19;108585;1269;22525;-80
2023/08/13 07:32:08;;;;;;;4.80;2.90;;;;;;;26.29;54.13;97071.05;108539;1275;22525;-79
2023/08/13 07:34:42;;;;;;;2.70;2.40;;;;;;;26.43;54.40;97067.75;108557;1275;22524;-77
2023/08/13 07:37:13;;;;;;;3.20;2.50;;;;;;;26.48;53.32;97066.86;108668;1268;22565;-77
2023/08/13 07:39:45;;;;;;;4.50;2.80;;;;;;;26.35;53.38;97068.72;108635;1272;25133;-78
2023/08/13 07:42:20;;;;;;;3.00;2.70;;;;;;;26.31;53.41;97067.80;108568;1268;23215;-77
2023/08/13 07:44:58;;;;;;;2.80;2.40;;;;;;;26.38;53.60;97069.45;108507;1275;22521;-77
2023/08/13 07:47:31;;;;;;;4.50;2.50;;;;;;;26.50;53.53;97068.14;108452;1275;22538;-78
2023/08/13 07:50:07;;;;;;;3.30;2.80;;;;;;;26.54;52.98;97069.04;108428;1275;25341;-78
2023/08/13 07:52:38;;;;;;;4.50;2.60;;;;;;;26.65;53.11;97070.02;108574;1269;22525;-78
2023/08/13 07:55:14;;;;;;;3.40;2.00;;;;;;;26.81;53.02;97062.89;108513;1275;22638;-77
2023/08/13 07:57:49;;;;;;;2.50;2.30;;;;;;;26.98;52.91;97063.45;108547;1275;22553;-78
2023/08/13 08:00:23;;;;;;;4.10;2.60;;;;;;;27.13;53.10;97060.02;108453;1275;22525;-78
2023/08/13 08:03:00;;;;;;;2.90;2.20;;;;;;;27.21;52.60;97062.84;108504;1272;22525;-77
2023/08/13 08:05:33;;;;;;;3.70;2.60;;;;;;;27.07;51.67;97062.23;108576;1275;22557;-76
2023/08/13 08:08:04;;;;;;;3.10;2.70;;;;;;;27.05;51.71;97059.97;108565;1275;22574;-76
2023/08/13 08:10:37;;;;;;;5.10;2.20;;;;;;;27.17;51.64;97059.61;108618;1272;24289;-76
2023/08/13 08:13:13;;;;;;;4.00;2.50;;;;;;;27.31;51.76;97057.30;108525;1266;24157;-76
2023/08/13 08:15:44;;;;;;;3.30;2.30;;;;;;;27.38;51.36;97062.81;108544;1269;22677;-76
2023/08/13 08:18:15;;;;;;;4.20;2.70;;;;;;;27.42;51.13;97061.59;108505;1275;25322;-76
2023/08/13 08:20:47;;;;;;;2.80;2.40;;;;;;;27.45;51.03;97064.27;108604;1270;22549;-76
2023/08/13 08:23:23;;;;;;;2.70;2.30;;;;;;;27.47;50.65;97067.41;108695;1268;22625;-76
2023/08/13 08:25:57;;;;;;;5.20;2.70;;;;;;;27.50;50.98;97062.60;108681;1269;23585;-76
2023/08/13 08:28:28;;;;;;;3.40;2.10;;;;;;;27.55;50.76;97066.52;108629;1275;25083;-76
2023/08/13 08:31:01;;;;;;;3.30;2.30;;;;;;;27.55;50.35;97064.34;108663;1275;24279;-77
2023/08/13 08:33:33;;;;;;;2.80;2.20;;;;;;;27.62;50.32;97063.40;108593;1268;22524;-76
2023/08/13 08:36:04;;;;;;;2.20;2.00;;;;;;;27.74;50.36;97066.92;108575;1268;22537;-76
2023/08/13 08:38:35;;;;;;;3.50;2.50;;;;;;;27.81;50.54;97067.20;108522;1269;22534;-77
2023/08/13 08:41:09;;;;;;;3.60;2.80;;;;;;;27.89;50.62;97061.80;108545;1269;22710;-78
2023/08/13 08:43:42;;;;;;;3.00;2.30;;;;;;;28.02;50.45;97057.45;108517;1275;22514;-75
2023/08/13 08:46:16;;;;;;;2.50;2.30;;;;;;;27.99;49.56;97052.28;108577;1275;25285;-75
2023/08/13 08:48:51;;;;;;;2.40;2.00;;;;;;;27.98;49.56;97049.93;108591;1269;22522;-76
2023/08/13 08:51:26;;;;;;;3.00;1.90;;;;;;;27.98;49.81;97045.73;108457;1275;172944;-76
2023/08/13 08:53:58;;;;;;;4.00;2.30;;;;;;;28.01;49.52;97048.79;108501;1272;22545;-77
2023/08/13 08:56:32;;;;;;;2.50;2.30;;;;;;;27.99;49.47;97044.10;108465;1268;22646;-77
2023/08/13 08:59:07;;;;;;;2.40;2.00;;;;;;;27.97;49.29;97039.18;108401;1269;22521;-76
2023/08/13 09:01:38;;;;;;;3.70;2.20;;;;;;;28.04;49.23;97041.40;108401;1275;25291;-76
2023/08/13 09:04:11;;;;;;;4.60;2.20;;;;;;;28.05;49.16;97039.86;108469;1265;22518;-76
2023/08/13 09:07:03;;;;;;;3.80;1.90;;;;;;;28.09;49.38;97039.24;108566;1268;22521;-75
2023/08/13 09:09:37;;;;;;;4.80;2.50;;;;;;;28.20;49.21;97038.52;108545;1275;22517;-76
2023/08/13 09:12:09;;;;;;;2.70;2.40;;;;;;;28.28;49.00;97037.71;108510;1268;22581;-76
2023/08/13 09:14:41;;;;;;;3.60;2.30;;;;;;;28.33;49.03;97037.05;108489;1275;22637;-75
2023/08/13 09:17:15;;;;;;;2.90;2.20;;;;;;;28.34;49.07;97036.73;108658;1275;23420;-77
2023/08/13 09:19:47;;;;;;;2.80;2.10;;;;;;;28.30;48.95;97034.16;108662;1275;24247;-76
2023/08/13 09:22:20;;;;;;;3.60;2.00;;;;;;;28.27;48.84;97029.84;108590;1275;25390;-76
2023/08/13 09:25:01;;;;;;;5.70;2.20;;;;;;;28.20;48.81;97033.15;108581;1275;22741;-76
2023/08/13 09:27:34;;;;;;;3.70;1.50;;;;;;;28.09;48.38;97031.06;108573;1275;22540;-76
2023/08/13 09:30:21;;;;;;;2.40;2.00;;;;;;;27.80;47.37;97032.16;108457;1268;26482;-76
2023/08/13 09:32:53;;;;;;;2.20;1.60;;;;;;;27.43;47.02;97031.65;108815;1269;25198;-77
2023/08/13 09:35:24;;;;;;;2.60;2.00;;;;;;;27.20;46.65;97025.70;108536;1272;23249;-75
2023/08/13 09:37:59;;;;;;;2.80;1.70;;;;;;;26.98;46.70;97020.84;108521;1269;22559;-76
2023/08/13 09:40:33;;;;;;;2.40;1.80;;;;;;;26.91;46.95;97019.92;108428;1268;23861;-75
2023/08/13 09:43:06;;;;;;;4.60;2.40;;;;;;;26.81;46.79;97021.46;108544;1275;24073;-76
2023/08/13 09:45:38;;;;;;;2.60;1.90;;;;;;;26.80;46.81;97024.94;108583;1275;25375;-76
2023/08/13 09:48:16;;;;;;;3.30;2.30;;;;;;;27.00;48.26;97020.64;108597;1268;25279;-76
2023/08/13 09:50:54;;;;;;;2.80;1.90;;;;;;;27.16;47.56;97021.19;108618;1275;23228;-76
2023/08/13 09:53:26;;;;;;;3.10;1.80;;;;;;;27.12;47.90;97019.04;108499;1269;24375;-76
2023/08/13 09:56:01;;;;;;;2.00;1.70;;;;;;;27.23;48.25;97019.21;108533;1269;26529;-75
2023/08/13 09:58:34;;;;;;;4.00;2.30;;;;;;;27.38;48.46;97019.24;108572;1275;22535;-75
2023/08/13 10:01:06;;;;;;;3.00;1.80;;;;;;;27.45;47.89;97018.91;108615;1272;22513;-75
2023/08/13 10:03:40;;;;;;;2.50;1.80;;;;;;;27.36;47.49;97025.08;108502;1275;24198;-76
2023/08/13 10:06:12;;;;;;;2.90;2.10;;;;;;;27.36;47.17;97022.50;108573;1275;24233;-75
2023/08/13 10:08:44;;;;;;;3.40;2.30;;;;;;;27.43;47.59;97021.77;108575;1275;25473;-80
2023/08/13 10:11:16;;;;;;;2.00;1.70;;;;;;;27.55;47.46;97025.20;108500;1269;22518;-76
2023/08/13 10:13:51;;;;;;;3.60;1.60;;;;;;;27.66;46.88;97024.54;108399;1269;22533;-76
2023/08/13 10:16:27;;;;;;;1.90;1.60;;;;;;;27.70;46.47;97017.61;108556;1275;22519;-76
2023/08/13 10:19:03;;;;;;;2.60;1.60;;;;;;;27.73;46.54;97020.44;108497;1268;22523;-76
2023/08/13 10:21:38;;;;;;;3.30;2.10;;;;;;;27.83;46.39;97017.61;108500;1269;23913;-76
2023/08/13 10:24:16;;;;;;;2.70;2.10;;;;;;;27.78;46.26;97017.98;108489;1268;22529;-77
2023/08/13 10:26:47;;;;;;;3.00;1.80;;;;;;;27.85;46.56;97014.52;109340;1269;22524;-77
2023/08/13 10:29:22;;;;;;;2.50;2.00;;;;;;;27.74;46.40;97013.05;108593;1268;23134;-77
2023/08/13 10:32:01;;;;;;;2.10;1.70;;;;;;;27.62;46.55;97013.20;108513;1269;22514;-75
2023/08/13 10:34:46;;;;;;;6.00;1.90;;;;;;;27.64;46.65;97016.17;108560;1269;22524;-76
2023/08/13 10:37:21;;;;;;;4.90;1.90;;;;;;;27.68;46.60;97013.33;108457;1276;22535;-77
2023/08/13 10:40:08;;;;;;;2.50;1.80;;;;;;;27.64;46.87;97012.36;108370;1272;22531;-77
2023/08/13 10:42:54;;;;;;;3.20;2.20;;;;;;;27.56;46.70;97012.75;108431;1271;25353;-77
2023/08/13 10:45:27;;;;;;;2.80;2.10;;;;;;;27.47;46.70;97010.37;108358;1269;22675;-77
2023/08/13 10:48:00;;;;;;;2.40;1.80;;;;;;;27.44;46.95;97011.73;108584;1269;23962;-76
2023/08/13 10:50:34;;;;;;;3.10;2.20;;;;;;;27.44;47.07;97011.74;108572;1268;22533;-77
2023/08/13 10:53:08;;;;;;;2.40;1.90;;;;;;;27.50;47.36;97009.06;108523;1275;22555;-77
2023/08/13 10:55:42;;;;;;;3.90;1.90;;;;;;;27.61;47.43;97005.64;108461;1272;22530;-77
2023/08/13 10:58:26;;;;;;;2.20;1.90;;;;;;;27.66;47.07;97007.80;108421;1271;22572;-77
2023/08/13 11:01:16;;;;;;;3.00;2.20;;;;;;;27.70;47.01;97005.39;108448;1276;22519;-77
2023/08/13 11:03:48;;;;;;;2.20;2.00;;;;;;;27.75;47.09;97003.26;108451;1276;22531;-78
2023/08/13 11:06:21;;;;;;;3.30;1.90;;;;;;;27.76;47.01;97005.05;108507;1268;22536;-77
2023/08/13 11:08:54;;;;;;;2.70;2.00;;;;;;;27.80;47.22;97000.16;108534;1275;22525;-78
2023/08/13 11:11:25;;;;;;;3.50;2.00;;;;;;;27.83;47.06;97003.37;108515;1275;22568;-78
2023/08/13 11:13:58;;;;;;;3.90;2.00;;;;;;;27.90;47.84;97000.84;108537;1275;23624;-78
2023/08/13 11:16:30;;;;;;;3.80;2.20;;;;;;;27.93;47.46;96996.57;108422;1274;25360;-77
2023/08/13 11:19:04;;;;;;;3.70;2.20;;;;;;;27.93;46.96;96994.79;108378;1272;22524;-78
2023/08/13 11:21:35;;;;;;;2.40;1.90;;;;;;;27.98;47.46;96996.66;108454;1270;23052;-78
2023/08/13 11:24:10;;;;;;;2.40;1.80;;;;;;;28.04;46.93;96996.55;108369;1272;22524;-77
2023/08/13 11:26:43;;;;;;;3.70;1.90;;;;;;;28.06;46.75;96993.45;108573;1275;25405;-78
2023/08/13 11:29:18;;;;;;;2.30;1.80;;;;;;;28.03;47.04;96993.67;108635;1275;23489;-78
2023/08/13 11:31:51;;;;;;;2.70;2.10;;;;;;;28.00;46.62;96994.89;108562;1268;22525;-77
2023/08/13 11:34:22;;;;;;;3.30;1.90;;;;;;;27.97;46.18;96994.56;108545;1275;22529;-78
2023/08/13 11:36:56;;;;;;;2.40;2.00;;;;;;;27.96;46.85;96992.69;108466;1274;25331;-77
2023/08/13 11:39:27;;;;;;;2.90;2.10;;;;;;;27.99;46.81;96993.24;108605;1268;24180;-77
2023/08/13 11:42:09;;;;;;;3.40;2.40;;;;;;;27.99;46.49;96991.61;108578;1271;22653;-78
2023/08/13 11:44:40;;;;;;;7.20;3.20;;;;;;;28.03;47.00;96988.84;108600;1274;22673;-79
2023/08/13 11:47:12;;;;;;;2.60;2.00;;;;;;;28.11;47.49;96990.89;108611;1274;22542;-77
2023/08/13 11:49:45;;;;;;;4.10;1.90;;;;;;;28.07;46.18;96992.59;108530;1274;24276;-77
2023/08/13 11:52:20;;;;;;;2.60;2.10;;;;;;;28.03;46.50;96984.33;108511;1274;23068;-78
2023/08/13 11:54:52;;;;;;;4.30;3.00;;;;;;;28.06;46.67;96989.08;108550;1267;22559;-77